Time;durP1;ratioP1;P1;durP2;ratioP2;P2;SDS_P1;SDS_P2;PMS_P1;PMS_P2;Temp;Humidity;BMP_temperature;BMP_pressure;BME280_temperature;BME280_humidity;BME280_pressure;Samples;Min_cycle;Max_cycle;Signal;HPM_P1;HPM_P2
2023/05/27 00:00:02;;;;;;;8.50;1.60;;;15.00;98.60;;;;;;4948932;28;20039;-70
2023/05/27 00:02:28;;;;;;;7.47;1.55;;;14.90;98.70;;;;;;4973136;28;20026;-70
2023/05/27 00:04:53;;;;;;;5.57;1.60;;;14.90;98.80;;;;;;4948118;28;20038;-71
2023/05/27 00:07:19;;;;;;;9.65;1.77;;;14.90;98.90;;;;;;4972533;28;20030;-70
2023/05/27 00:09:45;;;;;;;6.53;1.55;;;14.90;98.70;;;;;;4970028;28;20490;-70
2023/05/27 00:12:11;;;;;;;4.75;1.48;;;14.90;98.70;;;;;;4957190;28;20026;-70
2023/05/27 00:14:37;;;;;;;2.88;1.40;;;14.80;98.80;;;;;;4948444;28;20051;-70
2023/05/27 00:17:03;;;;;;;7.03;1.42;;;14.80;98.80;;;;;;4973121;28;20487;-70
2023/05/27 00:19:30;;;;;;;9.15;1.13;;;14.80;98.90;;;;;;4965456;28;20039;-70
2023/05/27 00:21:57;;;;;;;4.13;1.70;;;14.70;98.90;;;;;;4955898;28;20044;-71
2023/05/27 00:24:23;;;;;;;5.47;1.50;;;14.70;98.80;;;;;;4947809;28;20035;-71
2023/05/27 00:26:49;;;;;;;7.60;1.52;;;14.70;98.70;;;;;;4972958;28;20041;-71
2023/05/27 00:29:16;;;;;;;8.02;1.08;;;14.60;99.00;;;;;;4948404;29;20034;-71
2023/05/27 00:31:42;;;;;;;6.50;1.40;;;14.60;99.10;;;;;;4955742;28;20038;-71
2023/05/27 00:34:08;;;;;;;5.50;1.25;;;14.60;99.10;;;;;;4972413;28;20069;-70
2023/05/27 00:36:35;;;;;;;7.38;1.60;;;14.60;99.10;;;;;;4955076;28;20039;-69
2023/05/27 00:39:01;;;;;;;4.53;1.50;;;14.50;99.10;;;;;;4966237;28;20074;-69
2023/05/27 00:41:27;;;;;;;10.50;2.05;;;14.50;99.30;;;;;;4953797;28;20038;-70
2023/05/27 00:43:55;;;;;;;10.48;2.13;;;14.40;99.20;;;;;;4967873;28;20043;-70
2023/05/27 00:46:22;;;;;;;8.90;1.77;;;14.30;99.60;;;;;;4970177;28;20046;-70
2023/05/27 00:48:48;;;;;;;10.25;2.08;;;14.30;99.60;;;;;;4968257;28;20027;-70
2023/05/27 00:51:15;;;;;;;10.38;1.45;;;14.20;99.50;;;;;;4969460;28;20027;-70
2023/05/27 00:53:42;;;;;;;6.13;1.08;;;14.20;99.70;;;;;;4948298;28;20031;-70
2023/05/27 00:56:10;;;;;;;9.20;1.20;;;14.30;99.80;;;;;;4968262;28;20038;-70
2023/05/27 00:58:37;;;;;;;3.67;2.10;;;14.30;99.70;;;;;;4970257;28;20450;-70
2023/05/27 01:01:04;;;;;;;5.43;1.35;;;14.20;99.90;;;;;;4950354;28;20037;-70
2023/05/27 01:03:34;;;;;;;4.60;1.90;;;14.00;99.90;;;;;;4969913;28;20038;-70
2023/05/27 01:06:31;;;;;;;3.10;1.20;;;13.80;99.90;;;;;;4946911;28;20052;-70
2023/05/27 01:09:31;;;;;;;10.98;2.17;;;13.80;99.90;;;;;;4954382;28;20394;-71
2023/05/27 01:12:06;;;;;;;10.15;1.95;;;13.80;99.90;;;;;;4937776;28;20494;-71
2023/05/27 01:14:35;;;;;;;8.25;1.92;;;13.70;99.90;;;;;;4946284;28;20050;-70
2023/05/27 01:17:02;;;;;;;4.50;1.27;;;13.70;99.90;;;;;;4937896;28;20027;-70
2023/05/27 01:19:36;;;;;;;3.17;1.58;;;13.60;99.90;;;;;;4964208;28;20787;-69
2023/05/27 01:22:04;;;;;;;4.63;1.48;;;13.60;99.90;;;;;;4954963;28;20109;-70
2023/05/27 01:24:31;;;;;;;3.85;1.30;;;13.40;99.90;;;;;;4950259;28;20030;-70
2023/05/27 01:26:56;;;;;;;5.65;1.33;;;13.40;99.90;;;;;;4954354;28;20050;-71
2023/05/27 01:29:23;;;;;;;7.28;1.67;;;13.50;99.90;;;;;;4930859;28;20027;-70
2023/05/27 01:32:06;;;;;;;4.28;1.92;;;13.50;99.90;;;;;;4954418;28;20073;-71
2023/05/27 01:34:51;;;;;;;8.25;1.77;;;13.50;99.90;;;;;;4946077;28;20079;-70
2023/05/27 01:37:21;;;;;;;1.00;0.90;;;13.40;99.90;;;;;;4955162;28;20441;-70
2023/05/27 01:39:50;;;;;;;7.13;1.17;;;13.40;99.90;;;;;;4951336;29;20041;-71
2023/05/27 01:42:16;;;;;;;6.55;1.73;;;13.20;99.90;;;;;;4953140;28;20305;-70
2023/05/27 01:44:43;;;;;;;2.53;1.20;;;13.20;99.90;;;;;;4946689;28;20097;-70
2023/05/27 01:47:08;;;;;;;4.85;1.30;;;13.20;99.90;;;;;;4971360;28;20498;-70
2023/05/27 01:49:35;;;;;;;3.58;1.42;;;13.10;99.90;;;;;;4963758;28;20055;-69
2023/05/27 01:52:01;;;;;;;3.58;1.38;;;13.10;99.90;;;;;;4954342;28;20115;-69
2023/05/27 01:54:27;;;;;;;6.32;1.70;;;13.10;99.90;;;;;;4953328;28;20034;-70
2023/05/27 01:56:53;;;;;;;6.07;1.33;;;13.10;99.90;;;;;;4953612;28;20046;-70
2023/05/27 01:59:18;;;;;;;7.45;1.65;;;13.10;99.90;;;;;;4946867;28;20032;-70
2023/05/27 02:01:44;;;;;;;10.13;1.33;;;13.00;99.90;;;;;;4970930;28;20039;-70
2023/05/27 02:04:10;;;;;;;6.13;1.75;;;13.00;99.90;;;;;;4970156;28;20402;-70
2023/05/27 02:06:36;;;;;;;4.70;1.27;;;12.90;99.90;;;;;;4938555;29;20513;-69
2023/05/27 02:09:02;;;;;;;6.60;1.17;;;12.90;99.90;;;;;;4964578;28;20032;-70
2023/05/27 02:11:28;;;;;;;6.93;1.67;;;12.90;99.90;;;;;;4970036;28;20037;-70
2023/05/27 02:13:55;;;;;;;4.53;1.48;;;12.90;99.90;;;;;;4950454;29;20035;-70
2023/05/27 02:16:21;;;;;;;9.55;2.58;;;12.90;99.90;;;;;;4965280;28;20023;-70
2023/05/27 02:18:48;;;;;;;2.63;1.15;;;12.90;99.90;;;;;;4967484;28;20110;-70
2023/05/27 02:21:15;;;;;;;6.53;1.35;;;12.90;99.90;;;;;;4967947;28;20026;-70
2023/05/27 02:23:41;;;;;;;3.85;1.70;;;13.00;99.90;;;;;;4934036;28;20458;-71
2023/05/27 02:26:06;;;;;;;7.68;1.95;;;13.00;99.90;;;;;;4957471;28;20114;-69
2023/05/27 02:28:32;;;;;;;4.43;1.85;;;13.00;99.90;;;;;;4943223;28;20402;-70
2023/05/27 02:30:59;;;;;;;10.32;1.70;;;13.00;99.90;;;;;;4968641;28;20422;-70
2023/05/27 02:33:25;;;;;;;4.88;1.65;;;13.00;99.90;;;;;;4974118;28;20047;-71
2023/05/27 02:35:51;;;;;;;13.13;2.30;;;13.00;99.90;;;;;;4951446;28;20035;-70
2023/05/27 02:38:17;;;;;;;4.40;1.73;;;13.00;99.90;;;;;;4937981;28;20058;-71
2023/05/27 02:40:42;;;;;;;3.85;1.42;;;13.00;99.90;;;;;;4964394;28;20042;-70
2023/05/27 02:43:08;;;;;;;8.55;1.50;;;13.00;99.90;;;;;;4965534;28;20043;-70
2023/05/27 02:45:34;;;;;;;5.00;1.35;;;13.20;99.90;;;;;;4965326;28;20039;-69
2023/05/27 02:48:01;;;;;;;7.07;1.42;;;13.10;99.90;;;;;;4944676;28;20070;-70
2023/05/27 02:50:27;;;;;;;5.93;2.13;;;13.20;99.90;;;;;;4966672;28;20034;-70
2023/05/27 02:52:53;;;;;;;3.60;0.88;;;13.10;99.90;;;;;;4965384;23;20042;-65
2023/05/27 02:55:19;;;;;;;2.50;1.10;;;13.10;99.90;;;;;;4972048;28;20521;-65
2023/05/27 02:57:45;;;;;;;5.65;1.55;;;13.10;99.90;;;;;;4967107;28;20069;-65
2023/05/27 03:00:13;;;;;;;7.28;2.67;;;13.00;99.90;;;;;;4974159;28;20760;-65
2023/05/27 03:02:39;;;;;;;8.98;1.40;;;12.90;99.90;;;;;;4971230;28;20045;-65
2023/05/27 03:05:06;;;;;;;7.07;1.38;;;12.90;99.90;;;;;;4974682;28;20027;-65
2023/05/27 03:07:31;;;;;;;1.55;1.23;;;12.90;99.90;;;;;;4979940;28;20446;-65
2023/05/27 03:09:57;;;;;;;2.15;0.85;;;12.80;99.90;;;;;;4970222;28;20027;-65
2023/05/27 03:12:23;;;;;;;8.75;1.65;;;12.80;99.90;;;;;;4971329;28;20109;-64
2023/05/27 03:14:50;;;;;;;12.82;1.77;;;12.50;99.90;;;;;;4985697;28;20059;-65
2023/05/27 03:17:18;;;;;;;6.45;1.52;;;12.40;99.90;;;;;;4989732;28;20041;-65
2023/05/27 03:19:44;;;;;;;2.67;1.10;;;12.40;99.90;;;;;;4972953;28;20046;-65
2023/05/27 03:22:10;;;;;;;5.22;1.65;;;12.30;99.90;;;;;;4971807;28;20035;-65
2023/05/27 03:24:36;;;;;;;9.50;2.10;;;12.30;99.90;;;;;;4954821;28;20041;-65
2023/05/27 03:27:03;;;;;;;5.55;1.73;;;12.30;99.90;;;;;;4952484;28;20039;-65
2023/05/27 03:29:30;;;;;;;3.80;1.08;;;12.30;99.90;;;;;;4956515;28;20030;-64
2023/05/27 03:31:56;;;;;;;8.05;2.08;;;12.40;99.90;;;;;;4970558;28;20379;-65
2023/05/27 03:34:22;;;;;;;5.88;1.85;;;12.30;99.90;;;;;;4973049;28;20030;-66
2023/05/27 03:36:49;;;;;;;6.03;1.30;;;12.30;99.90;;;;;;4979315;28;20455;-66
2023/05/27 03:39:16;;;;;;;5.65;1.67;;;12.30;99.90;;;;;;4974035;28;20038;-66
2023/05/27 03:41:43;;;;;;;4.43;1.63;;;12.30;99.90;;;;;;4972091;28;20042;-66
2023/05/27 03:44:09;;;;;;;6.43;1.10;;;12.20;99.90;;;;;;4974103;28;20117;-64
2023/05/27 03:46:35;;;;;;;9.32;1.55;;;12.10;99.90;;;;;;4973017;28;20114;-64
2023/05/27 03:49:02;;;;;;;6.35;1.65;;;12.10;99.90;;;;;;4974171;28;20035;-64
2023/05/27 03:51:28;;;;;;;3.05;1.35;;;12.00;99.90;;;;;;4973427;28;20398;-64
2023/05/27 03:53:54;;;;;;;4.43;0.90;;;12.00;99.90;;;;;;4978560;28;20027;-63
2023/05/27 03:56:20;;;;;;;6.70;1.95;;;12.10;99.90;;;;;;4973093;28;20042;-64
2023/05/27 03:58:45;;;;;;;2.75;1.52;;;12.10;99.90;;;;;;4973902;28;20038;-64
2023/05/27 04:01:11;;;;;;;3.80;1.40;;;12.00;99.90;;;;;;4972966;28;20097;-63
2023/05/27 04:03:39;;;;;;;10.60;1.58;;;12.00;99.90;;;;;;4972229;28;20058;-65
2023/05/27 04:06:06;;;;;;;6.72;1.70;;;12.10;99.90;;;;;;4973043;28;20057;-65
2023/05/27 04:08:32;;;;;;;4.50;1.05;;;12.10;99.90;;;;;;4973527;28;20478;-65
2023/05/27 04:10:58;;;;;;;6.18;2.05;;;12.10;99.90;;;;;;4972043;28;20041;-65
2023/05/27 04:13:23;;;;;;;9.30;2.25;;;12.10;99.90;;;;;;4980144;28;20371;-65
2023/05/27 04:15:49;;;;;;;6.93;1.67;;;12.10;99.90;;;;;;4972540;28;20038;-65
2023/05/27 04:18:15;;;;;;;4.60;1.17;;;12.10;99.90;;;;;;4973648;28;20031;-65
2023/05/27 04:20:42;;;;;;;2.22;1.08;;;12.10;99.90;;;;;;4972008;28;20058;-65
2023/05/27 04:23:11;;;;;;;4.93;1.80;;;11.90;99.90;;;;;;4972725;28;20584;-65
2023/05/27 04:25:37;;;;;;;4.75;1.30;;;12.10;99.90;;;;;;4972490;28;20069;-65
2023/05/27 04:28:06;;;;;;;7.00;1.88;;;12.20;99.90;;;;;;4973437;28;20073;-65
2023/05/27 04:30:33;;;;;;;7.90;1.75;;;12.20;99.90;;;;;;4969145;28;20035;-66
2023/05/27 04:33:01;;;;;;;9.48;1.40;;;12.20;99.90;;;;;;4971591;28;20065;-65
2023/05/27 04:35:30;;;;;;;3.58;1.20;;;12.30;99.90;;;;;;4972425;28;20082;-65
2023/05/27 04:37:58;;;;;;;4.72;1.08;;;12.30;99.90;;;;;;4969245;28;20051;-65
2023/05/27 04:40:24;;;;;;;5.88;1.63;;;12.40;99.90;;;;;;4954955;28;20086;-65
2023/05/27 04:42:51;;;;;;;9.05;1.90;;;12.50;99.90;;;;;;4954856;28;20038;-65
2023/05/27 04:45:18;;;;;;;5.93;1.83;;;12.50;99.90;;;;;;4954039;28;20472;-65
2023/05/27 04:47:44;;;;;;;8.23;1.92;;;12.50;99.90;;;;;;4966177;28;20537;-65
2023/05/27 04:50:13;;;;;;;4.10;1.20;;;12.50;99.90;;;;;;4970784;28;20385;-65
2023/05/27 04:52:40;;;;;;;3.92;1.05;;;12.50;99.90;;;;;;4971045;28;20654;-65
2023/05/27 04:55:08;;;;;;;6.43;1.65;;;12.60;99.90;;;;;;4985622;28;20098;-65
2023/05/27 04:57:36;;;;;;;2.40;0.88;;;12.60;99.90;;;;;;4972695;28;20043;-65
2023/05/27 05:02:39;;;;;;;8.60;1.70;;;12.70;99.90;;;;;;4971216;28;20058;-65
2023/05/27 05:05:09;;;;;;;9.65;1.73;;;12.80;99.90;;;;;;4970794;28;20137;-65
2023/05/27 05:07:37;;;;;;;6.00;1.05;;;12.70;99.90;;;;;;4985341;28;20041;-65
2023/05/27 05:10:06;;;;;;;5.65;1.30;;;12.80;99.90;;;;;;4972258;28;20561;-65
2023/05/27 05:12:31;;;;;;;9.00;1.50;;;12.90;99.90;;;;;;4971760;28;20105;-65
2023/05/27 05:14:58;;;;;;;12.50;3.25;;;12.90;99.90;;;;;;4972274;28;20466;-65
2023/05/27 05:17:24;;;;;;;7.60;1.60;;;13.00;99.90;;;;;;4971816;28;20035;-65
2023/05/27 05:19:51;;;;;;;3.72;1.27;;;13.10;99.90;;;;;;4969827;28;20039;-65
2023/05/27 05:22:22;;;;;;;7.70;1.58;;;13.20;99.90;;;;;;4970390;28;20037;-65
2023/05/27 05:24:49;;;;;;;3.85;2.15;;;13.20;99.90;;;;;;4963600;28;20061;-65
2023/05/27 05:27:15;;;;;;;10.32;1.63;;;13.30;99.90;;;;;;4970706;28;20487;-65
2023/05/27 05:29:41;;;;;;;11.18;1.55;;;13.20;99.90;;;;;;4971280;28;20066;-65
2023/05/27 05:32:10;;;;;;;10.10;1.98;;;13.30;99.90;;;;;;4967378;28;20521;-65
2023/05/27 05:34:40;;;;;;;2.42;1.27;;;13.40;99.90;;;;;;4971769;28;20039;-65
2023/05/27 05:37:06;;;;;;;11.35;1.63;;;13.50;99.90;;;;;;4971545;28;20046;-65
2023/05/27 05:39:32;;;;;;;4.28;1.23;;;13.60;99.90;;;;;;4972052;28;20054;-65
2023/05/27 05:41:59;;;;;;;10.38;1.42;;;13.60;99.90;;;;;;4970207;28;20109;-65
2023/05/27 05:44:25;;;;;;;7.63;1.77;;;13.60;99.90;;;;;;4971747;28;20066;-65
2023/05/27 05:46:51;;;;;;;7.45;1.77;;;13.60;99.90;;;;;;4970825;28;20097;-65
2023/05/27 05:49:19;;;;;;;2.25;1.20;;;13.70;99.90;;;;;;4972063;28;20027;-67
2023/05/27 05:51:45;;;;;;;3.65;1.92;;;13.80;99.90;;;;;;4970450;28;20113;-65
2023/05/27 05:54:11;;;;;;;10.45;2.03;;;13.90;99.90;;;;;;4971819;28;20643;-65
2023/05/27 05:56:37;;;;;;;6.88;1.40;;;14.00;99.90;;;;;;4972106;28;20050;-66
2023/05/27 05:59:02;;;;;;;7.45;1.88;;;14.00;99.90;;;;;;4976080;28;20038;-66
2023/05/27 06:01:28;;;;;;;3.10;1.33;;;13.90;99.90;;;;;;4969318;28;20042;-68
2023/05/27 06:03:55;;;;;;;6.20;1.95;;;14.10;99.90;;;;;;4941462;28;20158;-66
2023/05/27 06:06:21;;;;;;;5.13;1.52;;;14.10;99.90;;;;;;4969300;28;20045;-65
2023/05/27 06:08:47;;;;;;;10.32;1.90;;;14.10;99.90;;;;;;4970682;28;20030;-65
2023/05/27 06:11:13;;;;;;;5.20;1.25;;;14.20;99.90;;;;;;4968997;28;20031;-65
2023/05/27 06:13:40;;;;;;;5.13;1.30;;;14.30;99.90;;;;;;4961960;28;20027;-65
2023/05/27 06:16:06;;;;;;;7.38;1.50;;;14.40;99.90;;;;;;4968610;28;20053;-65
2023/05/27 06:18:32;;;;;;;8.27;1.45;;;14.50;99.90;;;;;;4971110;28;20070;-66
2023/05/27 06:20:57;;;;;;;6.22;1.42;;;14.50;99.90;;;;;;4969920;28;20066;-65
2023/05/27 06:23:24;;;;;;;9.55;1.42;;;14.60;99.90;;;;;;4971348;28;20027;-66
2023/05/27 06:25:49;;;;;;;2.88;1.30;;;14.70;99.90;;;;;;4969534;28;20042;-66
2023/05/27 06:28:15;;;;;;;10.40;1.52;;;14.90;99.90;;;;;;4971444;28;20482;-66
2023/05/27 06:30:42;;;;;;;2.97;1.20;;;15.00;99.90;;;;;;4968927;28;20035;-66
2023/05/27 06:33:08;;;;;;;4.53;1.67;;;15.00;99.90;;;;;;4968327;28;20705;-65
2023/05/27 06:35:34;;;;;;;3.92;1.75;;;15.00;99.90;;;;;;4970626;28;20035;-66
2023/05/27 06:38:00;;;;;;;3.60;1.27;;;15.10;99.90;;;;;;4970643;28;20041;-64
2023/05/27 06:40:26;;;;;;;6.38;1.27;;;15.20;99.90;;;;;;4965509;28;20054;-65
2023/05/27 06:42:53;;;;;;;7.57;1.58;;;15.30;99.90;;;;;;4969340;28;20031;-67
2023/05/27 06:45:19;;;;;;;5.85;1.33;;;15.40;99.90;;;;;;4970849;28;20035;-67
2023/05/27 06:47:47;;;;;;;2.10;0.75;;;15.60;99.90;;;;;;4967548;28;20097;-67
2023/05/27 06:50:13;;;;;;;5.50;1.20;;;15.60;99.90;;;;;;4966748;28;20094;-67
2023/05/27 06:52:39;;;;;;;7.05;1.33;;;15.70;99.90;;;;;;4965247;28;20035;-67
2023/05/27 06:55:05;;;;;;;4.20;0.80;;;15.70;99.90;;;;;;4970731;28;20093;-67
2023/05/27 06:57:31;;;;;;;8.77;1.70;;;15.80;99.90;;;;;;4969315;28;20034;-68
2023/05/27 06:59:56;;;;;;;8.02;1.67;;;16.00;99.90;;;;;;4971042;28;20034;-65
2023/05/27 07:02:22;;;;;;;2.78;1.30;;;16.10;99.70;;;;;;4969933;28;20118;-47
2023/05/27 07:04:48;;;;;;;4.63;1.73;;;16.20;99.10;;;;;;4980846;28;20089;-47
2023/05/27 07:07:14;;;;;;;7.13;1.85;;;16.30;98.90;;;;;;4960512;28;20059;-49
2023/05/27 07:09:40;;;;;;;5.82;1.50;;;16.40;98.60;;;;;;4967772;28;20739;-47
2023/05/27 07:12:09;;;;;;;7.88;1.95;;;16.50;98.30;;;;;;4967364;28;20039;-46
2023/05/27 07:14:34;;;;;;;5.10;1.27;;;16.70;98.00;;;;;;4968117;28;20367;-47
2023/05/27 07:17:01;;;;;;;6.35;1.38;;;16.80;97.30;;;;;;4970236;28;20031;-49
2023/05/27 07:19:26;;;;;;;3.50;1.52;;;16.80;97.10;;;;;;4970544;28;20647;-51
2023/05/27 07:21:52;;;;;;;3.83;1.15;;;17.00;97.50;;;;;;4973932;28;20035;-48
2023/05/27 07:24:18;;;;;;;5.97;1.13;;;17.10;97.20;;;;;;4973200;28;20039;-65
2023/05/27 07:26:43;;;;;;;3.08;1.52;;;17.20;96.60;;;;;;4974183;28;20477;-64
2023/05/27 07:29:10;;;;;;;5.30;1.90;;;17.30;95.60;;;;;;4984823;28;20620;-64
2023/05/27 07:31:36;;;;;;;3.83;1.65;;;17.30;95.50;;;;;;4972310;28;20169;-64
2023/05/27 07:34:02;;;;;;;5.03;1.20;;;17.50;95.30;;;;;;4972879;28;20109;-65
2023/05/27 07:36:27;;;;;;;2.47;0.77;;;17.60;95.20;;;;;;4968649;28;20071;-64
2023/05/27 07:38:53;;;;;;;4.07;0.98;;;17.70;94.50;;;;;;4967340;28;20398;-64
2023/05/27 07:41:20;;;;;;;5.07;1.38;;;17.60;94.60;;;;;;4973119;28;20034;-64
2023/05/27 07:43:45;;;;;;;3.70;1.13;;;17.60;94.80;;;;;;4971847;28;20570;-64
2023/05/27 07:46:11;;;;;;;3.72;1.65;;;17.70;94.90;;;;;;4973115;28;20043;-65
2023/05/27 07:48:37;;;;;;;5.00;1.38;;;17.80;94.60;;;;;;4974102;28;20031;-64
2023/05/27 07:51:03;;;;;;;2.72;1.23;;;17.90;94.30;;;;;;4973194;28;20026;-65
2023/05/27 07:53:28;;;;;;;8.15;1.67;;;18.00;94.10;;;;;;4973516;28;20070;-64
2023/05/27 07:55:54;;;;;;;2.38;1.20;;;18.00;94.40;;;;;;4972748;28;20038;-64
2023/05/27 07:58:20;;;;;;;10.32;2.47;;;18.10;94.30;;;;;;4973686;28;20542;-64
2023/05/27 08:00:46;;;;;;;8.10;2.30;;;18.10;94.10;;;;;;4973394;28;20113;-64
2023/05/27 08:03:11;;;;;;;4.05;0.90;;;18.30;93.90;;;;;;4973468;28;20494;-64
2023/05/27 08:05:37;;;;;;;5.25;1.20;;;18.40;94.00;;;;;;4972839;28;20070;-64
2023/05/27 08:08:03;;;;;;;1.98;0.90;;;18.60;93.70;;;;;;4973474;28;20119;-64
2023/05/27 08:10:29;;;;;;;7.75;2.10;;;18.70;93.30;;;;;;4972650;28;20465;-64
2023/05/27 08:12:55;;;;;;;6.90;1.25;;;18.80;92.90;;;;;;4973488;28;20058;-63
2023/05/27 08:15:20;;;;;;;4.22;1.23;;;18.80;92.80;;;;;;4973106;28;20034;-64
2023/05/27 08:17:46;;;;;;;7.82;1.35;;;18.60;92.70;;;;;;4973522;28;20414;-64
2023/05/27 08:20:12;;;;;;;4.45;1.30;;;18.70;93.40;;;;;;4971863;28;20114;-64
2023/05/27 08:22:38;;;;;;;2.67;1.17;;;18.70;93.20;;;;;;4973237;28;20450;-64
2023/05/27 08:25:04;;;;;;;4.97;1.23;;;18.80;92.60;;;;;;4972401;28;20039;-64
2023/05/27 08:27:51;;;;;;;3.00;1.00;;;18.90;92.50;;;;;;4972665;28;20039;-64
2023/05/27 08:30:18;;;;;;;7.57;1.33;;;19.10;92.30;;;;;;4971072;28;20030;-64
2023/05/27 08:32:44;;;;;;;4.47;1.10;;;18.90;92.30;;;;;;4973064;28;20126;-64
2023/05/27 08:35:13;;;;;;;6.10;1.83;;;19.00;92.20;;;;;;4972215;28;20033;-64
2023/05/27 08:37:40;;;;;;;5.38;1.60;;;19.30;92.40;;;;;;4973268;28;20181;-64
2023/05/27 08:40:12;;;;;;;9.02;1.50;;;19.50;91.10;;;;;;4972965;28;20047;-64
2023/05/27 08:42:39;;;;;;;3.10;1.13;;;19.50;91.50;;;;;;4973048;28;20155;-66
2023/05/27 08:45:06;;;;;;;5.22;1.63;;;19.60;91.60;;;;;;4971311;28;20101;-64
2023/05/27 08:47:32;;;;;;;12.13;1.63;;;19.70;91.50;;;;;;4972972;28;20027;-64
2023/05/27 08:49:58;;;;;;;5.15;1.30;;;19.60;91.00;;;;;;4971525;28;20039;-64
2023/05/27 08:52:27;;;;;;;5.88;1.10;;;19.70;91.10;;;;;;4971608;28;20034;-64
2023/05/27 08:54:54;;;;;;;6.32;1.92;;;19.90;91.00;;;;;;4955234;28;20491;-64
2023/05/27 08:57:23;;;;;;;5.13;1.52;;;20.00;90.90;;;;;;4971844;28;20030;-65
2023/05/27 08:59:51;;;;;;;3.47;1.48;;;20.20;90.70;;;;;;4988770;23;20022;-68
2023/05/27 09:02:20;;;;;;;4.95;1.60;;;20.00;91.20;;;;;;4992407;28;20493;-68
2023/05/27 09:04:47;;;;;;;9.38;1.35;;;20.30;91.20;;;;;;4993049;28;20022;-69
2023/05/27 09:07:12;;;;;;;6.35;1.48;;;20.10;90.80;;;;;;5009770;28;20045;-68
2023/05/27 09:09:42;;;;;;;2.38;1.00;;;20.20;90.50;;;;;;5000921;28;20085;-68
2023/05/27 09:12:10;;;;;;;7.90;1.30;;;20.50;90.90;;;;;;4982584;28;20022;-68
2023/05/27 09:14:38;;;;;;;3.22;1.40;;;20.80;90.30;;;;;;5008180;28;20033;-69
2023/05/27 09:17:08;;;;;;;5.55;1.90;;;20.50;88.60;;;;;;4999830;28;20113;-69
2023/05/27 09:19:34;;;;;;;7.25;1.58;;;20.40;89.90;;;;;;5007515;28;20068;-69
2023/05/27 09:22:00;;;;;;;5.10;1.20;;;20.70;90.40;;;;;;4996328;28;20034;-67
2023/05/27 09:24:27;;;;;;;5.80;2.15;;;20.90;90.40;;;;;;4973053;28;20117;-68
2023/05/27 09:26:55;;;;;;;8.27;1.52;;;20.70;89.60;;;;;;4999052;28;20118;-67
2023/05/27 09:29:27;;;;;;;3.33;1.70;;;20.50;89.30;;;;;;5008153;28;20103;-68
2023/05/27 09:31:56;;;;;;;3.90;1.10;;;20.80;90.00;;;;;;4989802;28;20033;-68
2023/05/27 09:34:22;;;;;;;2.95;1.38;;;21.00;90.10;;;;;;5001403;28;20030;-67
2023/05/27 09:36:51;;;;;;;6.88;2.00;;;21.40;89.10;;;;;;4972743;28;20034;-67
2023/05/27 09:39:22;;;;;;;4.97;3.00;;;21.60;87.50;;;;;;4993997;28;20030;-66
2023/05/27 09:41:55;;;;;;;4.65;1.50;;;21.80;88.60;;;;;;4998013;28;20072;-66
2023/05/27 09:44:26;;;;;;;7.68;1.60;;;22.00;88.30;;;;;;4990586;28;20041;-67
2023/05/27 09:46:54;;;;;;;2.80;1.42;;;22.20;87.90;;;;;;4982162;28;20504;-68
2023/05/27 09:49:22;;;;;;;3.17;1.42;;;22.30;87.70;;;;;;4990414;28;20030;-68
2023/05/27 09:51:48;;;;;;;9.88;1.88;;;21.80;88.30;;;;;;4982015;28;20069;-67
2023/05/27 09:54:21;;;;;;;4.05;1.30;;;21.90;87.70;;;;;;4953067;28;20030;-67
2023/05/27 09:56:49;;;;;;;3.22;1.55;;;21.70;87.10;;;;;;4997887;28;20122;-65
2023/05/27 09:59:15;;;;;;;5.45;1.88;;;22.10;86.80;;;;;;4974372;28;20458;-67
2023/05/27 10:01:44;;;;;;;5.53;1.70;;;21.70;87.20;;;;;;4997599;28;20105;-67
2023/05/27 10:04:13;;;;;;;6.05;1.40;;;22.10;87.40;;;;;;4988802;28;20388;-68
2023/05/27 10:06:40;;;;;;;5.43;1.73;;;22.20;86.80;;;;;;4983255;28;20043;-67
2023/05/27 10:09:06;;;;;;;5.85;1.63;;;22.60;86.20;;;;;;4988094;28;20489;-67
2023/05/27 10:11:38;;;;;;;8.07;1.77;;;22.70;85.00;;;;;;5001873;28;20096;-69
2023/05/27 10:14:05;;;;;;;4.30;1.33;;;22.60;85.30;;;;;;4979214;28;20030;-81
2023/05/27 10:16:32;;;;;;;10.07;1.60;;;22.60;84.70;;;;;;4977198;28;20092;-76
2023/05/27 10:18:58;;;;;;;4.18;1.45;;;22.80;84.40;;;;;;5008958;28;20033;-73
2023/05/27 10:21:28;;;;;;;8.07;1.95;;;22.70;83.90;;;;;;5000353;28;20042;-74
2023/05/27 10:24:02;;;;;;;4.23;1.73;;;22.90;83.40;;;;;;4975987;28;20063;-76
2023/05/27 10:26:44;;;;;;;4.18;1.90;;;22.80;86.10;;;;;;4978828;28;20453;-75
2023/05/27 10:29:13;;;;;;;2.40;1.23;;;22.70;85.10;;;;;;4988365;28;20037;-76
2023/05/27 10:31:47;;;;;;;4.38;1.25;;;22.90;83.60;;;;;;4981890;28;20041;-77
2023/05/27 10:34:13;;;;;;;5.78;1.88;;;23.10;83.10;;;;;;5005830;28;20045;-77
2023/05/27 10:36:39;;;;;;;4.30;1.80;;;23.40;83.10;;;;;;4999891;28;20042;-75
2023/05/27 10:39:17;;;;;;;16.92;2.33;;;23.50;82.10;;;;;;4987942;28;20061;-75
2023/05/27 10:41:51;;;;;;;6.63;2.13;;;23.40;82.10;;;;;;4999061;28;20081;-75
2023/05/27 10:44:34;;;;;;;7.65;2.45;;;23.60;82.80;;;;;;4990137;28;20053;-76
2023/05/27 10:47:11;;;;;;;4.85;1.58;;;23.70;82.50;;;;;;4993022;28;20126;-74
2023/05/27 10:49:39;;;;;;;2.97;1.13;;;23.60;81.90;;;;;;5007032;28;20397;-75
2023/05/27 10:52:17;;;;;;;8.68;1.85;;;24.10;81.90;;;;;;5001450;28;20038;-75
2023/05/27 10:54:48;;;;;;;8.93;1.30;;;24.40;80.70;;;;;;4976320;28;20042;-76
2023/05/27 10:57:14;;;;;;;;;;;24.30;79.80;;;;;;4985830;28;20105;-75
2023/05/27 10:59:53;;;;;;;3.60;1.50;;;23.90;80.00;;;;;;4993330;28;20008;-76
2023/05/27 11:02:20;;;;;;;5.55;1.67;;;23.90;78.60;;;;;;4985262;28;20379;-76
2023/05/27 11:04:48;;;;;;;2.17;1.38;;;23.60;81.00;;;;;;4992745;28;20030;-75
2023/05/27 11:07:24;;;;;;;4.80;1.95;;;24.30;80.80;;;;;;4965495;28;20066;-75
2023/05/27 11:09:53;;;;;;;7.50;1.25;;;24.70;80.10;;;;;;4993415;28;20026;-75
2023/05/27 11:12:21;;;;;;;5.35;1.60;;;25.00;79.20;;;;;;4984850;28;20038;-75
2023/05/27 11:14:56;;;;;;;2.65;1.55;;;25.10;79.30;;;;;;5010636;28;20099;-75
2023/05/27 11:17:23;;;;;;;5.82;2.05;;;25.70;76.70;;;;;;5002884;28;20085;-76
2023/05/27 11:19:52;;;;;;;4.38;1.40;;;25.50;74.80;;;;;;5009729;28;20036;-75
2023/05/27 11:22:19;;;;;;;3.45;1.48;;;25.60;76.30;;;;;;4984627;28;20079;-76
2023/05/27 11:25:02;;;;;;;4.15;1.58;;;25.80;75.00;;;;;;4975701;28;20387;-76
2023/05/27 11:27:37;;;;;;;4.35;1.75;;;25.70;74.70;;;;;;4986470;28;20053;-76
2023/05/27 11:30:11;;;;;;;4.80;1.23;;;25.80;73.30;;;;;;5007780;28;20030;-76
2023/05/27 11:32:38;;;;;;;3.40;1.23;;;26.20;72.80;;;;;;4987159;28;20061;-75
2023/05/27 11:35:12;;;;;;;2.60;1.13;;;26.00;72.70;;;;;;5007357;28;20042;-75
2023/05/27 11:37:37;;;;;;;5.13;1.90;;;26.00;74.20;;;;;;5004513;28;20506;-75
2023/05/27 11:40:12;;;;;;;2.90;1.10;;;25.50;74.00;;;;;;5007732;28;20077;-75
2023/05/27 11:42:43;;;;;;;5.75;1.42;;;25.60;72.10;;;;;;4987035;28;20112;-75
2023/05/27 11:45:19;;;;;;;4.82;1.55;;;26.00;72.60;;;;;;4989660;28;20022;-75
2023/05/27 11:47:50;;;;;;;6.07;1.83;;;25.90;71.20;;;;;;4984390;28;20034;-75
2023/05/27 11:50:19;;;;;;;4.82;1.70;;;25.90;70.80;;;;;;4976195;28;20030;-74
2023/05/27 11:52:56;;;;;;;3.20;1.33;;;25.80;72.10;;;;;;4987383;28;20112;-75
2023/05/27 11:55:23;;;;;;;6.00;1.60;;;26.10;70.90;;;;;;4988207;28;20034;-74
2023/05/27 11:57:50;;;;;;;12.45;1.67;;;25.80;70.70;;;;;;4987379;28;20025;-74
2023/05/27 12:00:17;;;;;;;3.28;1.35;;;26.10;71.20;;;;;;4988189;28;20034;-75
2023/05/27 12:02:44;;;;;;;4.97;1.98;;;26.40;67.80;;;;;;5003341;28;20065;-75
2023/05/27 12:05:10;;;;;;;8.32;1.80;;;26.80;66.70;;;;;;5006121;28;20033;-75
2023/05/27 12:07:39;;;;;;;2.67;1.40;;;26.90;66.10;;;;;;4986224;28;20113;-75
2023/05/27 12:10:07;;;;;;;6.72;1.85;;;27.00;65.80;;;;;;4990206;28;20018;-74
2023/05/27 12:12:34;;;;;;;4.43;1.08;;;26.30;65.90;;;;;;5003066;28;20026;-75
2023/05/27 12:15:01;;;;;;;4.38;1.30;;;26.30;65.50;;;;;;4990672;28;20023;-74
2023/05/27 12:17:27;;;;;;;3.67;1.40;;;26.70;66.30;;;;;;5002393;28;20030;-75
2023/05/27 12:19:52;;;;;;;4.50;1.65;;;26.60;64.60;;;;;;5008389;28;20045;-75
2023/05/27 12:22:18;;;;;;;2.95;1.08;;;26.50;65.90;;;;;;5000950;28;20039;-75
2023/05/27 12:24:44;;;;;;;4.43;1.67;;;27.00;66.40;;;;;;5008788;28;20064;-75
2023/05/27 12:27:09;;;;;;;6.00;1.80;;;27.20;64.30;;;;;;5000923;28;20034;-75
2023/05/27 12:29:35;;;;;;;2.47;1.02;;;27.00;65.10;;;;;;5009083;28;20085;-75
2023/05/27 12:32:01;;;;;;;6.13;1.80;;;27.40;65.40;;;;;;5000789;28;20109;-75
2023/05/27 12:34:27;;;;;;;5.90;1.45;;;27.40;65.50;;;;;;5009941;28;20325;-75
2023/05/27 12:36:52;;;;;;;6.43;2.45;;;27.00;65.90;;;;;;5000096;28;20038;-75
2023/05/27 12:39:19;;;;;;;9.13;1.90;;;27.20;64.60;;;;;;5008867;28;20600;-74
2023/05/27 12:41:45;;;;;;;4.50;1.35;;;27.40;63.90;;;;;;5000536;28;20092;-75
2023/05/27 12:44:11;;;;;;;4.07;1.38;;;27.30;63.10;;;;;;4989948;28;20112;-74
2023/05/27 12:46:38;;;;;;;3.70;1.23;;;26.90;66.00;;;;;;5001241;28;20034;-75
2023/05/27 12:49:03;;;;;;;1.80;1.00;;;27.10;64.60;;;;;;5006874;28;20068;-75